Time;durP1;ratioP1;P1;durP2;ratioP2;P2;SDS_P1;SDS_P2;PMS_P1;PMS_P2;Temp;Humidity;BMP_temperature;BMP_pressure;BME280_temperature;BME280_humidity;BME280_pressure;Samples;Min_cycle;Max_cycle;Signal;HPM_P1;HPM_P2
2021/11/15 00:02:22;;;;;;;;;;;11.40;56.50;;;;;;5073890;28;20047;-66
2021/11/15 00:04:47;;;;;;;;;;;11.40;56.50;;;;;;5073785;28;19915;-66
2021/11/15 00:07:13;;;;;;;;;;;11.30;56.50;;;;;;5074135;28;19909;-66
2021/11/15 00:09:39;;;;;;;;;;;11.30;56.50;;;;;;5073754;28;19913;-65
2021/11/15 00:12:05;;;;;;;;;;;11.30;56.50;;;;;;5073731;28;19908;-66
2021/11/15 00:14:31;;;;;;;;;;;11.20;56.50;;;;;;5073447;28;19928;-66
2021/11/15 00:16:56;;;;;;;;;;;11.20;56.50;;;;;;5073840;28;19908;-65
2021/11/15 00:19:22;;;;;;;;;;;11.20;56.50;;;;;;5073176;28;19925;-66
2021/11/15 00:21:48;;;;;;;;;;;11.10;56.60;;;;;;5073557;28;20258;-65
2021/11/15 00:24:13;;;;;;;;;;;11.10;56.70;;;;;;5072560;28;19999;-66
2021/11/15 00:26:39;;;;;;;;;;;11.00;56.60;;;;;;5073445;28;19908;-66
2021/11/15 00:29:05;;;;;;;;;;;11.00;56.70;;;;;;5073453;28;19996;-66
2021/11/15 00:31:30;;;;;;;;;;;10.90;56.70;;;;;;5073412;28;20369;-65
2021/11/15 00:33:56;;;;;;;;;;;10.80;56.70;;;;;;5073732;28;20004;-65
2021/11/15 00:36:22;;;;;;;;;;;10.80;56.90;;;;;;5073329;28;19912;-65
2021/11/15 00:38:48;;;;;;;;;;;10.70;57.00;;;;;;5073162;28;19979;-66
2021/11/15 00:41:14;;;;;;;;;;;10.70;57.20;;;;;;5073356;28;20045;-66
2021/11/15 00:43:40;;;;;;;;;;;10.70;57.30;;;;;;5073259;28;19915;-65
2021/11/15 00:46:05;;;;;;;;;;;10.70;57.40;;;;;;5073190;28;19909;-66
2021/11/15 00:48:31;;;;;;;;;;;10.60;57.30;;;;;;5073185;28;19931;-65
2021/11/15 00:50:57;;;;;;;;;;;10.60;57.40;;;;;;5073136;28;19955;-66
2021/11/15 00:53:23;;;;;;;;;;;10.60;57.50;;;;;;5073123;28;19908;-66
2021/11/15 00:55:48;;;;;;;;;;;10.60;57.50;;;;;;5073154;28;19909;-66
2021/11/15 00:58:14;;;;;;;;;;;10.50;57.50;;;;;;5073096;28;19912;-66
2021/11/15 01:00:41;;;;;;;;;;;10.50;57.60;;;;;;5073372;28;19991;-65
2021/11/15 01:03:07;;;;;;;;;;;10.50;57.70;;;;;;5073209;28;19905;-65
2021/11/15 01:05:34;;;;;;;;;;;10.50;57.70;;;;;;5073283;28;19908;-65
2021/11/15 01:08:00;;;;;;;;;;;10.50;57.60;;;;;;5073669;28;19904;-66
2021/11/15 01:10:25;;;;;;;;;;;10.40;57.60;;;;;;5073306;28;19909;-65
2021/11/15 01:12:51;;;;;;;;;;;10.40;57.70;;;;;;5072871;28;19905;-65
2021/11/15 01:15:18;;;;;;;;;;;10.30;58.30;;;;;;5072807;28;19921;-66
2021/11/15 01:17:44;;;;;;;;;;;10.30;57.70;;;;;;5072788;28;19916;-66
2021/11/15 01:20:11;;;;;;;;;;;10.30;57.90;;;;;;5072828;28;20282;-66
2021/11/15 01:22:36;;;;;;;;;;;10.20;57.90;;;;;;5072860;28;20433;-65
2021/11/15 01:25:03;;;;;;;;;;;10.20;58.00;;;;;;5071567;28;19909;-65
2021/11/15 01:27:28;;;;;;;;;;;10.20;58.20;;;;;;5072785;28;19909;-65
2021/11/15 01:29:54;;;;;;;;;;;10.20;58.30;;;;;;5073370;28;19931;-66
2021/11/15 01:32:20;;;;;;;;;;;10.20;58.40;;;;;;5076796;28;20425;-65
2021/11/15 01:34:45;;;;;;;;;;;10.20;58.40;;;;;;5076742;28;20350;-65
2021/11/15 01:37:11;;;;;;;;;;;10.30;58.40;;;;;;5076698;28;19909;-65
2021/11/15 01:39:37;;;;;;;;;;;10.30;58.50;;;;;;5056525;28;19912;-65
2021/11/15 01:42:03;;;;;;;;;;;10.30;58.40;;;;;;5056584;28;19909;-65
2021/11/15 01:44:29;;;;;;;;;;;10.30;58.40;;;;;;5056548;28;19909;-65
2021/11/15 01:46:55;;;;;;;;;;;10.30;58.40;;;;;;5056505;28;20328;-65
2021/11/15 01:49:20;;;;;;;;;;;10.30;58.30;;;;;;5056465;28;19917;-65
2021/11/15 01:51:46;;;;;;;;;;;10.30;58.40;;;;;;5056495;28;19915;-65
2021/11/15 01:54:12;;;;;;;;;;;10.20;58.50;;;;;;5056339;28;19988;-65
2021/11/15 01:56:37;;;;;;;;;;;10.20;58.50;;;;;;5056359;28;19988;-65
2021/11/15 01:59:04;;;;;;;;;;;10.20;58.60;;;;;;5054928;28;19919;-65
2021/11/15 02:01:30;;;;;;;;;;;10.20;58.50;;;;;;5056237;28;19909;-65
2021/11/15 02:03:56;;;;;;;;;;;10.20;58.60;;;;;;5056099;28;19930;-65
2021/11/15 02:06:22;;;;;;;;;;;10.20;58.60;;;;;;5071442;28;20003;-65
2021/11/15 02:08:48;;;;;;;;;;;10.20;58.50;;;;;;5055960;28;19948;-66
2021/11/15 02:11:13;;;;;;;;;;;10.20;58.50;;;;;;5055953;28;19915;-65
2021/11/15 02:13:40;;;;;;;;;;;10.20;58.40;;;;;;5055651;28;19921;-65
2021/11/15 02:16:06;;;;;;;;;;;10.20;58.40;;;;;;5054585;28;19912;-66
2021/11/15 02:18:32;;;;;;;;;;;10.10;58.30;;;;;;5055695;28;19941;-66
2021/11/15 02:20:59;;;;;;;;;;;10.10;58.30;;;;;;5055756;28;19936;-65
2021/11/15 02:23:26;;;;;;;;;;;10.10;58.30;;;;;;5055696;28;19908;-65
2021/11/15 02:25:53;;;;;;;;;;;10.00;58.30;;;;;;5054620;28;20448;-66
2021/11/15 02:28:23;;;;;;;;;;;10.00;58.30;;;;;;5054344;28;19909;-65
2021/11/15 02:30:49;;;;;;;;;;;9.90;58.30;;;;;;5055598;28;20317;-66
2021/11/15 02:33:14;;;;;;;;;;;9.90;58.40;;;;;;5055550;28;19909;-65
2021/11/15 02:35:40;;;;;;;;;;;9.80;58.50;;;;;;5055592;28;19959;-65
2021/11/15 02:38:06;;;;;;;;;;;9.80;58.60;;;;;;5074408;28;19916;-65
2021/11/15 02:40:32;;;;;;;;;;;9.70;58.70;;;;;;5075192;28;19934;-65
2021/11/15 02:42:57;;;;;;;;;;;9.70;58.80;;;;;;5075388;28;19905;-65
2021/11/15 02:45:24;;;;;;;;;;;9.70;58.80;;;;;;5075478;28;20354;-65
2021/11/15 02:47:50;;;;;;;;;;;9.60;58.80;;;;;;5075271;28;19904;-65
2021/11/15 02:50:20;;;;;;;;;;;9.60;58.90;;;;;;5075277;28;20358;-65
2021/11/15 02:52:48;;;;;;;;;;;9.50;58.90;;;;;;5075245;28;19909;-66
2021/11/15 02:55:14;;;;;;;;;;;9.50;59.00;;;;;;5075113;28;20358;-66
2021/11/15 02:57:40;;;;;;;;;;;9.40;59.00;;;;;;5075019;28;19909;-65
2021/11/15 03:00:14;;;;;;;;;;;9.40;59.10;;;;;;5075429;28;20003;-65
2021/11/15 03:02:39;;;;;;;;;;;9.40;59.20;;;;;;5075121;28;19908;-65
2021/11/15 03:05:05;;;;;;;;;;;9.40;59.20;;;;;;5074984;28;19917;-65
2021/11/15 03:07:31;;;;;;;;;;;9.40;59.30;;;;;;5074990;28;20337;-65
2021/11/15 03:09:56;;;;;;;;;;;9.40;59.40;;;;;;5074843;28;19971;-65
2021/11/15 03:12:30;;;;;;;;;;;9.30;59.30;;;;;;5074866;28;19966;-65
2021/11/15 03:14:55;;;;;;;;;;;9.30;59.40;;;;;;5074652;28;19924;-65
2021/11/15 03:17:21;;;;;;;;;;;9.30;59.40;;;;;;5074759;28;20370;-65
2021/11/15 03:19:47;;;;;;;;;;;9.30;59.40;;;;;;5074637;28;19920;-65
2021/11/15 03:22:12;;;;;;;;;;;9.30;59.50;;;;;;5074636;28;19914;-65
2021/11/15 03:24:38;;;;;;;;;;;9.30;59.50;;;;;;5074567;28;19958;-65
2021/11/15 03:27:03;;;;;;;;;;;9.30;59.50;;;;;;5074516;28;19909;-65
2021/11/15 03:29:29;;;;;;;;;;;9.20;59.50;;;;;;5074493;28;19955;-65
2021/11/15 03:31:55;;;;;;;;;;;9.20;59.50;;;;;;5074471;28;19909;-65
2021/11/15 03:34:20;;;;;;;;;;;9.20;59.60;;;;;;5074440;28;20374;-65
2021/11/15 03:36:46;;;;;;;;;;;9.20;59.60;;;;;;5074290;28;19908;-65
2021/11/15 03:39:12;;;;;;;;;;;9.20;59.70;;;;;;5074302;28;19932;-65
2021/11/15 03:41:42;;;;;;;;;;;9.20;59.70;;;;;;5074283;28;19909;-65
2021/11/15 03:44:08;;;;;;;;;;;9.20;59.70;;;;;;5074239;28;19912;-65
2021/11/15 03:46:33;;;;;;;;;;;9.20;60.30;;;;;;5074140;28;19908;-66
2021/11/15 03:48:59;;;;;;;;;;;9.20;59.70;;;;;;5074079;28;19905;-65
2021/11/15 03:51:25;;;;;;;;;;;9.10;59.60;;;;;;5074157;28;20333;-65
2021/11/15 03:53:51;;;;;;;;;;;9.10;59.60;;;;;;5072026;28;19995;-65
2021/11/15 03:56:22;;;;;;;;;;;9.10;59.60;;;;;;5073992;28;19908;-65
2021/11/15 03:58:49;;;;;;;;;;;9.10;59.60;;;;;;5073904;28;19912;-65
2021/11/15 04:01:15;;;;;;;;;;;9.10;59.60;;;;;;5073807;28;19991;-65
2021/11/15 04:03:42;;;;;;;;;;;9.10;59.70;;;;;;5072757;28;19987;-65
2021/11/15 04:06:26;;;;;;;;;;;9.00;59.60;;;;;;5073791;28;20014;-65
2021/11/15 04:08:56;;;;;;;;;;;9.00;59.70;;;;;;5073708;28;19994;-65
2021/11/15 04:11:23;;;;;;;;;;;9.00;59.80;;;;;;5073716;28;19908;-65
2021/11/15 04:13:50;;;;;;;;;;;9.00;59.90;;;;;;5073309;28;19966;-65
2021/11/15 04:16:17;;;;;;;;;;;9.00;59.90;;;;;;5073646;28;20346;-65
2021/11/15 04:18:45;;;;;;;;;;;9.00;59.90;;;;;;5073461;28;19958;-65
2021/11/15 04:21:12;;;;;;;;;;;9.00;59.90;;;;;;5073469;28;19984;-65
2021/11/15 04:23:38;;;;;;;;;;;9.00;59.90;;;;;;5073463;28;19909;-65
2021/11/15 04:26:03;;;;;;;;;;;9.00;59.90;;;;;;5073738;28;20399;-65
2021/11/15 04:28:29;;;;;;;;;;;9.00;59.90;;;;;;5073316;28;19908;-65
2021/11/15 04:30:55;;;;;;;;;;;8.90;59.80;;;;;;5073228;28;20278;-65
2021/11/15 04:33:23;;;;;;;;;;;8.90;59.80;;;;;;5073110;28;19915;-65
2021/11/15 04:35:49;;;;;;;;;;;8.90;59.90;;;;;;5073131;28;19909;-66
2021/11/15 04:38:15;;;;;;;;;;;8.90;59.90;;;;;;5072990;28;19913;-65
2021/11/15 04:40:41;;;;;;;;;;;8.80;59.80;;;;;;5071714;28;19916;-65
2021/11/15 04:43:06;;;;;;;;;;;8.80;59.90;;;;;;5071922;28;19904;-65
2021/11/15 04:45:32;;;;;;;;;;;8.80;59.90;;;;;;5073105;28;19912;-65
2021/11/15 04:47:58;;;;;;;;;;;8.80;59.80;;;;;;5073165;28;19905;-65
2021/11/15 04:50:24;;;;;;;;;;;8.80;59.80;;;;;;5073073;28;20426;-65
2021/11/15 04:52:50;;;;;;;;;;;8.70;59.80;;;;;;5073007;28;19954;-65
2021/11/15 04:55:16;;;;;;;;;;;8.70;59.80;;;;;;5073088;28;19934;-65
2021/11/15 04:57:42;;;;;;;;;;;8.70;59.80;;;;;;5072877;28;19915;-65
2021/11/15 05:00:17;;;;;;;;;;;8.60;59.90;;;;;;5072883;28;20231;-65
2021/11/15 05:02:43;;;;;;;;;;;8.60;59.90;;;;;;5072943;28;20323;-65
2021/11/15 05:05:09;;;;;;;;;;;8.60;59.90;;;;;;5072818;28;19957;-65
2021/11/15 05:07:35;;;;;;;;;;;8.60;59.90;;;;;;5072838;28;19912;-65
2021/11/15 05:10:01;;;;;;;;;;;8.50;59.80;;;;;;5072720;28;20292;-65
2021/11/15 05:12:27;;;;;;;;;;;8.50;59.90;;;;;;5072802;28;19909;-65
2021/11/15 05:14:52;;;;;;;;;;;8.50;60.00;;;;;;5072613;28;20377;-65
2021/11/15 05:17:18;;;;;;;;;;;8.40;60.00;;;;;;5072816;28;19908;-65
2021/11/15 05:19:45;;;;;;;;;;;8.40;60.10;;;;;;5072641;28;19913;-65
2021/11/15 05:22:11;;;;;;;;;;;8.40;60.20;;;;;;5073075;28;20352;-64
2021/11/15 05:24:36;;;;;;;;;;;8.40;60.30;;;;;;5072672;28;19909;-64
2021/11/15 05:27:02;;;;;;;;;;;8.40;60.50;;;;;;5072701;28;19962;-64
2021/11/15 05:29:29;;;;;;;;;;;8.40;60.50;;;;;;5072540;28;19908;-65
2021/11/15 05:31:55;;;;;;;;;;;8.30;60.60;;;;;;5072646;28;19916;-65
2021/11/15 05:34:20;;;;;;;;;;;8.30;60.60;;;;;;5072624;28;19954;-66
2021/11/15 05:36:46;;;;;;;;;;;8.40;60.70;;;;;;5072659;28;19991;-66
2021/11/15 05:39:12;;;;;;;;;;;8.30;60.90;;;;;;5072642;28;20273;-65
2021/11/15 05:41:37;;;;;;;;;;;8.40;61.00;;;;;;5072664;28;20017;-65
2021/11/15 05:44:03;;;;;;;;;;;8.40;61.00;;;;;;5072556;28;19931;-66
2021/11/15 05:46:29;;;;;;;;;;;8.40;61.00;;;;;;5072438;28;19908;-65
2021/11/15 05:48:55;;;;;;;;;;;8.40;61.70;;;;;;5072537;28;19911;-66
2021/11/15 05:51:21;;;;;;;;;;;8.40;60.90;;;;;;5072492;28;19909;-66
2021/11/15 05:53:46;;;;;;;;;;;8.40;60.90;;;;;;5072469;28;19905;-66
2021/11/15 05:56:13;;;;;;;;;;;8.40;60.80;;;;;;5072551;28;19912;-65
2021/11/15 05:58:38;;;;;;;;;;;8.40;60.80;;;;;;5072252;28;19918;-65
2021/11/15 06:01:04;;;;;;;;;;;8.40;60.80;;;;;;5072303;28;19995;-65
2021/11/15 06:03:30;;;;;;;;;;;8.40;60.70;;;;;;5071031;28;19909;-66
2021/11/15 06:05:55;;;;;;;;;;;8.40;60.60;;;;;;5072305;28;19915;-65
2021/11/15 06:08:21;;;;;;;;;;;8.40;60.70;;;;;;5072366;28;19909;-65
2021/11/15 06:10:47;;;;;;;;;;;8.40;60.80;;;;;;5072235;28;20273;-66
2021/11/15 06:13:13;;;;;;;;;;;8.40;60.90;;;;;;5072137;28;19909;-66
2021/11/15 06:15:39;;;;;;;;;;;8.40;60.90;;;;;;5071994;28;19916;-65
2021/11/15 06:18:05;;;;;;;;;;;8.40;60.80;;;;;;5074390;28;20373;-66
2021/11/15 06:20:31;;;;;;;;;;;8.40;60.80;;;;;;5075270;28;19909;-66
2021/11/15 06:22:57;;;;;;;;;;;8.40;60.80;;;;;;5075746;28;19927;-66
2021/11/15 06:25:23;;;;;;;;;;;8.40;60.80;;;;;;5075540;28;19964;-66
2021/11/15 06:27:49;;;;;;;;;;;8.50;60.90;;;;;;5075653;28;20369;-66
2021/11/15 06:30:15;;;;;;;;;;;8.50;60.90;;;;;;5075321;28;19999;-66
2021/11/15 06:32:42;;;;;;;;;;;8.50;60.90;;;;;;5074359;28;20373;-65
2021/11/15 06:35:09;;;;;;;;;;;8.50;61.00;;;;;;5075511;28;19908;-66
2021/11/15 06:37:35;;;;;;;;;;;8.50;61.10;;;;;;5075415;28;19908;-66
2021/11/15 06:40:00;;;;;;;;;;;8.50;61.20;;;;;;5075495;28;19962;-66
2021/11/15 06:42:26;;;;;;;;;;;8.50;61.20;;;;;;5075417;28;20427;-66
2021/11/15 06:44:52;;;;;;;;;;;8.60;61.30;;;;;;5075269;28;19908;-66
2021/11/15 06:47:18;;;;;;;;;;;8.60;61.40;;;;;;5075430;28;19947;-66
2021/11/15 06:49:44;;;;;;;;;;;8.60;61.60;;;;;;5075294;28;19912;-66
2021/11/15 06:52:09;;;;;;;;;;;8.70;61.70;;;;;;5075392;28;19908;-66
2021/11/15 06:54:35;;;;;;;;;;;8.70;62.30;;;;;;5075560;28;19991;-66
2021/11/15 06:57:01;;;;;;;;;;;8.70;61.50;;;;;;5075461;28;20427;-65
2021/11/15 06:59:27;;;;;;;;;;;8.80;61.70;;;;;;5075210;28;20311;-66
2021/11/15 07:01:52;;;;;;;;;;;8.80;61.60;;;;;;5056009;28;19908;-65
2021/11/15 07:04:18;;;;;;;;;;;8.90;61.60;;;;;;5055203;28;19908;-68
2021/11/15 07:06:44;;;;;;;;;;;8.90;61.50;;;;;;5055118;28;19944;-69
2021/11/15 07:09:10;;;;;;;;;;;8.90;61.50;;;;;;5084664;28;19946;-70
2021/11/15 07:11:36;;;;;;;;;;;9.00;61.40;;;;;;5074877;28;19952;-70
2021/11/15 07:14:03;;;;;;;;;;;9.00;61.30;;;;;;5074702;28;20262;-69
2021/11/15 07:16:28;;;;;;;;;;;9.00;61.20;;;;;;5074883;28;19908;-69
2021/11/15 07:18:54;;;;;;;;;;;9.10;61.20;;;;;;5073470;28;19920;-66
2021/11/15 07:21:21;;;;;;;;;;;9.10;61.20;;;;;;5069517;28;20057;-68
2021/11/15 07:23:47;;;;;;;;;;;9.10;61.20;;;;;;5073887;28;20286;-67
2021/11/15 07:26:13;;;;;;;;;;;9.10;61.20;;;;;;5093928;28;19909;-67
2021/11/15 07:28:38;;;;;;;;;;;9.20;61.30;;;;;;5092887;28;19911;-67
2021/11/15 07:31:04;;;;;;;;;;;9.30;61.40;;;;;;5057554;28;20267;-68
2021/11/15 07:33:29;;;;;;;;;;;9.40;61.40;;;;;;5077492;28;20269;-67
2021/11/15 07:35:55;;;;;;;;;;;9.40;61.30;;;;;;5073584;28;19915;-67
2021/11/15 07:38:21;;;;;;;;;;;9.50;61.40;;;;;;5073398;28;19916;-67
2021/11/15 07:40:46;;;;;;;;;;;9.60;61.40;;;;;;5073573;28;19912;-67
2021/11/15 07:43:12;;;;;;;;;;;9.60;61.30;;;;;;5073423;28;19908;-67
2021/11/15 07:45:38;;;;;;;;;;;9.70;61.30;;;;;;5073431;28;20360;-67
2021/11/15 07:48:04;;;;;;;;;;;9.70;61.10;;;;;;5073201;28;19919;-68
2021/11/15 07:50:29;;;;;;;;;;;9.80;61.10;;;;;;5073361;28;19912;-67
2021/11/15 07:52:55;;;;;;;;;;;9.90;61.10;;;;;;5085806;28;19912;-67
2021/11/15 07:55:21;;;;;;;;;;;9.90;60.90;;;;;;5087640;28;19924;-67
2021/11/15 07:57:46;;;;;;;;;;;10.00;60.90;;;;;;5072941;28;19915;-67
2021/11/15 08:00:14;;;;;;;;;;;10.10;60.80;;;;;;5074856;28;19961;-68
2021/11/15 08:02:40;;;;;;;;;;;10.10;60.50;;;;;;5072772;28;20383;-67
2021/11/15 08:05:06;;;;;;;;;;;10.20;60.40;;;;;;5071471;28;19919;-67
2021/11/15 08:07:32;;;;;;;;;;;10.20;60.40;;;;;;5072682;28;19913;-68
2021/11/15 08:09:57;;;;;;;;;;;10.30;60.50;;;;;;5072897;28;20066;-67
2021/11/15 08:12:26;;;;;;;;;;;10.30;60.30;;;;;;5074884;28;19927;-67
2021/11/15 08:14:51;;;;;;;;;;;10.40;60.30;;;;;;5072663;28;20259;-68
2021/11/15 08:17:17;;;;;;;;;;;10.40;60.20;;;;;;5067364;28;19927;-68
2021/11/15 08:19:42;;;;;;;;;;;10.40;60.10;;;;;;5069725;28;19924;-67
2021/11/15 08:22:08;;;;;;;;;;;10.50;60.10;;;;;;5071378;28;19917;-67
2021/11/15 08:24:34;;;;;;;;;;;10.50;60.00;;;;;;5083217;28;19934;-68
2021/11/15 08:27:01;;;;;;;;;;;10.60;60.00;;;;;;5087396;28;19909;-67
2021/11/15 08:29:28;;;;;;;;;;;10.60;59.90;;;;;;5072101;28;19916;-68
2021/11/15 08:31:55;;;;;;;;;;;10.70;59.80;;;;;;5052726;28;20023;-68
2021/11/15 08:34:21;;;;;;;;;;;10.70;59.80;;;;;;5051483;28;19999;-67
2021/11/15 08:36:48;;;;;;;;;;;10.70;59.80;;;;;;5062350;28;19996;-67
2021/11/15 08:39:15;;;;;;;;;;;10.80;59.80;;;;;;5070897;28;19995;-68
2021/11/15 08:41:45;;;;;;;;;;;10.90;59.70;;;;;;5090281;28;19987;-68
2021/11/15 08:44:10;;;;;;;;;;;10.90;59.70;;;;;;5090009;28;19912;-68
2021/11/15 08:46:36;;;;;;;;;;;10.90;59.50;;;;;;5091700;28;20363;-68
2021/11/15 08:49:04;;;;;;;;;;;10.90;59.40;;;;;;5091562;28;19915;-68
2021/11/15 08:51:30;;;;;;;;;;;11.00;59.40;;;;;;5074030;28;19912;-68
2021/11/15 08:53:56;;;;;;;;;;;11.00;59.40;;;;;;5071353;28;20275;-68
2021/11/15 08:56:22;;;;;;;;;;;11.00;59.30;;;;;;5071480;28;20419;-68
2021/11/15 08:58:47;;;;;;;;;;;11.00;59.20;;;;;;5071365;28;19916;-67
2021/11/15 09:01:15;;;;;;;;;;;11.10;59.20;;;;;;5084670;28;20331;-68
2021/11/15 09:03:42;;;;;;;;;;;11.10;59.20;;;;;;5091450;28;19962;-68
2021/11/15 09:06:08;;;;;;;;;;;11.10;59.20;;;;;;5091405;28;19915;-68
2021/11/15 09:08:35;;;;;;;;;;;11.20;59.20;;;;;;5091359;28;19957;-67
2021/11/15 09:11:01;;;;;;;;;;;11.20;59.10;;;;;;5085860;28;20276;-68
2021/11/15 09:13:27;;;;;;;;;;;11.30;59.10;;;;;;5089424;28;19934;-68
2021/11/15 09:15:52;;;;;;;;;;;11.30;59.10;;;;;;5091050;28;19920;-68
2021/11/15 09:18:18;;;;;;;;;;;11.40;59.10;;;;;;5077572;28;19924;-68
2021/11/15 09:20:44;;;;;;;;;;;11.40;59.00;;;;;;5071014;28;19909;-68
2021/11/15 09:23:10;;;;;;;;;;;11.50;58.90;;;;;;5078296;28;19912;-67
2021/11/15 09:25:35;;;;;;;;;;;11.50;58.90;;;;;;5089672;28;19912;-68
2021/11/15 09:28:01;;;;;;;;;;;11.60;58.90;;;;;;5056933;28;20294;-68
2021/11/15 09:30:27;;;;;;;;;;;11.60;58.90;;;;;;5052443;28;20384;-69
2021/11/15 09:32:52;;;;;;;;;;;11.70;58.80;;;;;;5072513;28;19920;-69
2021/11/15 09:35:19;;;;;;;;;;;11.70;58.70;;;;;;5070805;28;19978;-69
2021/11/15 09:37:45;;;;;;;;;;;11.70;58.60;;;;;;5073852;28;19918;-69
2021/11/15 09:40:11;;;;;;;;;;;11.80;59.10;;;;;;5070595;28;20352;-68
2021/11/15 09:42:38;;;;;;;;;;;11.80;58.50;;;;;;5070573;28;20373;-69
2021/11/15 09:45:06;;;;;;;;;;;11.90;58.50;;;;;;5071049;28;19951;-69
2021/11/15 09:47:32;;;;;;;;;;;11.90;58.50;;;;;;5059931;28;20297;-69
2021/11/15 09:49:59;;;;;;;;;;;11.90;58.30;;;;;;5051048;28;19958;-68
2021/11/15 09:52:25;;;;;;;;;;;12.00;58.30;;;;;;5054560;28;19920;-69
2021/11/15 09:54:50;;;;;;;;;;;12.00;58.30;;;;;;5073962;28;20243;-69
2021/11/15 09:57:18;;;;;;;;;;;12.00;58.20;;;;;;5063964;28;19963;-69
2021/11/15 09:59:44;;;;;;;;;;;12.10;58.20;;;;;;5075113;28;20293;-69
2021/11/15 10:02:10;;;;;;;;;;;12.10;58.10;;;;;;5073477;28;19967;-69
2021/11/15 10:04:36;;;;;;;;;;;12.10;58.10;;;;;;5073033;28;20343;-69
2021/11/15 10:07:03;;;;;;;;;;;12.20;58.00;;;;;;5074427;28;19999;-69
2021/11/15 10:09:30;;;;;;;;;;;12.20;58.00;;;;;;5074090;28;19913;-69
2021/11/15 10:11:57;;;;;;;;;;;12.30;58.00;;;;;;5074407;28;19909;-69
2021/11/15 10:14:23;;;;;;;;;;;12.30;58.00;;;;;;5073868;28;19929;-69
2021/11/15 10:16:51;;;;;;;;;;;12.40;58.00;;;;;;5078094;28;19950;-69
2021/11/15 10:19:20;;;;;;;;;;;12.40;57.90;;;;;;5072916;28;19920;-69
2021/11/15 10:21:47;;;;;;;;;;;12.50;57.90;;;;;;5077611;28;19919;-69
2021/11/15 10:24:14;;;;;;;;;;;12.50;57.80;;;;;;5073957;28;20380;-69
2021/11/15 10:26:51;;;;;;;;;;;12.50;57.70;;;;;;5063056;28;19969;-69
2021/11/15 10:29:26;;;;;;;;;;;12.60;57.60;;;;;;5074326;28;20281;-69
2021/11/15 10:31:58;;;;;;;;;;;12.60;57.50;;;;;;5056155;28;19909;-69
2021/11/15 10:34:44;;;;;;;;;;;12.60;57.60;;;;;;5053667;28;19909;-69
2021/11/15 10:37:14;;;;;;;;;;;12.70;57.60;;;;;;5068384;28;20263;-69
2021/11/15 10:39:44;;;;;;;;;;;12.60;57.50;;;;;;5073685;28;19991;-69
2021/11/15 10:42:15;;;;;;;;;;;12.70;57.40;;;;;;5073692;28;19924;-69
2021/11/15 10:44:47;;;;;;;;;;;12.70;57.40;;;;;;5075824;28;19912;-69
2021/11/15 10:47:13;;;;;;;;;;;12.80;57.40;;;;;;5072425;28;19920;-71
2021/11/15 10:49:40;;;;;;;;;;;12.80;57.40;;;;;;5068388;28;19917;-70
2021/11/15 10:52:09;;;;;;;;;;;12.90;57.30;;;;;;5082839;28;20024;-68
2021/11/15 10:54:43;;;;;;;;;;;12.90;57.30;;;;;;5082923;28;20365;-68
2021/11/15 10:57:19;;;;;;;;;;;12.90;57.30;;;;;;5075034;28;20002;-68
2021/11/15 10:59:45;;;;;;;;;;;12.90;57.20;;;;;;5070617;28;19920;-68
2021/11/15 11:02:29;;;;;;;;;;;13.00;57.30;;;;;;5073300;28;20267;-69
2021/11/15 11:05:03;;;;;;;;;;;13.00;57.20;;;;;;5073403;28;20034;-68
2021/11/15 11:07:29;;;;;;;;;;;13.10;57.30;;;;;;5077104;28;19913;-68
2021/11/15 11:09:59;;;;;;;;;;;13.10;57.20;;;;;;5073806;28;19920;-68
2021/11/15 11:12:30;;;;;;;;;;;13.20;57.20;;;;;;5073879;28;20369;-68
2021/11/15 11:15:14;;;;;;;;;;;13.20;57.10;;;;;;5073887;28;19970;-69
2021/11/15 11:17:56;;;;;;;;;;;13.30;57.20;;;;;;5075504;28;19913;-68
2021/11/15 11:23:17;;;;;;;;;;;13.40;56.80;;;;;;5068805;28;20293;-68
2021/11/15 11:25:43;;;;;;;;;;;13.40;56.60;;;;;;5068637;28;19919;-69
2021/11/15 11:28:28;;;;;;;;;;;13.40;56.60;;;;;;5073483;28;20368;-68
2021/11/15 11:30:55;;;;;;;;;;;13.40;56.60;;;;;;5073016;28;19999;-69
2021/11/15 11:33:20;;;;;;;;;;;13.50;56.70;;;;;;5077100;28;19915;-68
2021/11/15 11:35:47;;;;;;;;;;;13.50;56.70;;;;;;5073700;28;20305;-68
2021/11/15 11:38:13;;;;;;;;;;;13.50;56.60;;;;;;5072085;28;19995;-69
2021/11/15 11:40:40;;;;;;;;;;;13.60;56.60;;;;;;5073898;28;20011;-69
2021/11/15 11:43:06;;;;;;;;;;;13.60;56.50;;;;;;5073534;28;20369;-69
2021/11/15 11:45:31;;;;;;;;;;;13.60;56.50;;;;;;5084420;28;19912;-69
2021/11/15 11:47:57;;;;;;;;;;;13.60;56.40;;;;;;5074955;28;19964;-69
2021/11/15 11:50:23;;;;;;;;;;;13.70;56.30;;;;;;5073228;28;19908;-69
2021/11/15 11:53:02;;;;;;;;;;;13.80;56.40;;;;;;5073023;28;19909;-69
2021/11/15 11:55:31;;;;;;;;;;;13.80;56.30;;;;;;5076971;28;20018;-69
2021/11/15 11:57:57;;;;;;;;;;;13.80;56.20;;;;;;5072741;28;19913;-68
2021/11/15 12:00:23;;;;;;;;;;;13.80;56.00;;;;;;5072998;28;19909;-69
2021/11/15 12:02:49;;;;;;;;;;;13.80;56.00;;;;;;5072704;28;20065;-69
2021/11/15 12:05:27;;;;;;;;;;;13.90;56.10;;;;;;5072732;28;19961;-69
2021/11/15 12:07:55;;;;;;;;;;;13.90;56.10;;;;;;5072690;28;19991;-69
2021/11/15 12:10:40;;;;;;;;;;;13.90;56.00;;;;;;5078578;28;19927;-68
2021/11/15 12:13:07;;;;;;;;;;;14.00;55.90;;;;;;5085714;28;19912;-68
2021/11/15 12:15:42;;;;;;;;;;;14.00;55.80;;;;;;5052061;28;20386;-70
2021/11/15 12:18:18;;;;;;;;;;;14.00;55.80;;;;;;5052712;28;19959;-71
2021/11/15 12:21:00;;;;;;;;;;;14.00;55.70;;;;;;5081540;28;19992;-71
2021/11/15 12:23:27;;;;;;;;;;;14.00;55.70;;;;;;5058962;28;19975;-71
2021/11/15 12:26:02;;;;;;;;;;;14.00;55.70;;;;;;5065964;28;19996;-71
2021/11/15 12:28:29;;;;;;;;;;;14.10;55.70;;;;;;5091083;28;20259;-71
2021/11/15 12:30:57;;;;;;;;;;;14.10;55.70;;;;;;5082913;28;19917;-70
2021/11/15 12:33:24;;;;;;;;;;;14.10;55.70;;;;;;5083475;28;20393;-71
2021/11/15 12:35:49;;;;;;;;;;;14.10;55.60;;;;;;5091808;28;19908;-71
2021/11/15 12:38:34;;;;;;;;;;;14.10;55.60;;;;;;5091768;28;20362;-71
2021/11/15 12:41:00;;;;;;;;;;;14.10;55.50;;;;;;5091735;28;19951;-71
2021/11/15 12:43:25;;;;;;;;;;;14.20;55.40;;;;;;5079312;28;19920;-71
2021/11/15 12:46:06;;;;;;;;;;;14.10;55.20;;;;;;5071432;28;19912;-71
2021/11/15 12:48:40;;;;;;;;;;;14.10;55.10;;;;;;5071466;28;19912;-71
2021/11/15 12:51:19;;;;;;;;;;;14.10;55.10;;;;;;5071390;28;20002;-70
2021/11/15 12:53:50;;;;;;;;;;;14.10;55.10;;;;;;5085602;28;19967;-69
2021/11/15 12:56:17;;;;;;;;;;;14.10;55.10;;;;;;5075711;28;19913;-69
2021/11/15 12:58:46;;;;;;;;;;;14.10;55.10;;;;;;5060582;28;20070;-70
2021/11/15 13:01:12;;;;;;;;;;;14.10;55.20;;;;;;5051950;28;19908;-68
2021/11/15 13:03:40;;;;;;;;;;;14.10;55.10;;;;;;5052261;28;20252;-69
2021/11/15 13:06:07;;;;;;;;;;;14.10;55.00;;;;;;5068953;28;19912;-69
2021/11/15 13:08:33;;;;;;;;;;;14.10;55.60;;;;;;5077837;28;19908;-69
2021/11/15 13:10:59;;;;;;;;;;;14.00;54.90;;;;;;5072168;28;19912;-69
2021/11/15 13:13:25;;;;;;;;;;;14.00;54.90;;;;;;5072133;28;19904;-69
2021/11/15 13:15:51;;;;;;;;;;;14.00;54.90;;;;;;5071844;28;19921;-70
2021/11/15 13:18:19;;;;;;;;;;;14.00;55.10;;;;;;5081946;28;19916;-70
2021/11/15 13:20:44;;;;;;;;;;;14.00;55.10;;;;;;5085589;28;19920;-70
2021/11/15 13:23:10;;;;;;;;;;;13.90;55.10;;;;;;5051832;28;19909;-69
2021/11/15 13:25:35;;;;;;;;;;;13.90;55.10;;;;;;5052032;28;20439;-70
2021/11/15 13:28:01;;;;;;;;;;;14.00;55.20;;;;;;5069907;28;19957;-70
2021/11/15 13:30:28;;;;;;;;;;;13.90;55.10;;;;;;5076092;28;20366;-70
2021/11/15 13:32:55;;;;;;;;;;;13.90;55.10;;;;;;5075919;28;19912;-70
2021/11/15 13:35:21;;;;;;;;;;;13.90;55.20;;;;;;5075973;28;19913;-70
2021/11/15 13:37:52;;;;;;;;;;;13.90;55.20;;;;;;5075692;28;19915;-70
2021/11/15 13:40:18;;;;;;;;;;;13.90;55.20;;;;;;5074940;28;19912;-70
2021/11/15 13:42:43;;;;;;;;;;;13.90;55.20;;;;;;5075830;28;19908;-70
2021/11/15 13:45:09;;;;;;;;;;;13.90;55.20;;;;;;5075938;28;19919;-70
2021/11/15 13:47:35;;;;;;;;;;;13.90;55.30;;;;;;5075470;28;20437;-70
2021/11/15 13:50:01;;;;;;;;;;;13.90;55.20;;;;;;5075649;28;19912;-70
2021/11/15 13:52:26;;;;;;;;;;;13.90;55.30;;;;;;5075584;28;19909;-70
2021/11/15 13:54:52;;;;;;;;;;;13.80;55.20;;;;;;5075481;28;19912;-70
2021/11/15 13:57:21;;;;;;;;;;;13.80;55.20;;;;;;5075454;28;19912;-69
2021/11/15 13:59:47;;;;;;;;;;;13.80;55.20;;;;;;5075364;28;19912;-70
2021/11/15 14:02:13;;;;;;;;;;;13.70;55.20;;;;;;5074115;28;19958;-70
2021/11/15 14:04:38;;;;;;;;;;;13.70;55.30;;;;;;5075308;28;19914;-70
2021/11/15 14:07:04;;;;;;;;;;;13.70;55.30;;;;;;5075266;28;20002;-70
2021/11/15 14:09:30;;;;;;;;;;;13.70;55.40;;;;;;5075017;28;19908;-70
2021/11/15 14:11:55;;;;;;;;;;;13.60;55.30;;;;;;5075160;28;20007;-70
2021/11/15 14:14:21;;;;;;;;;;;13.60;55.40;;;;;;5074734;28;19923;-70
2021/11/15 14:16:47;;;;;;;;;;;13.50;55.40;;;;;;5073734;28;19919;-69
2021/11/15 14:19:13;;;;;;;;;;;13.50;55.40;;;;;;5074730;28;19913;-70
2021/11/15 14:21:39;;;;;;;;;;;13.50;55.50;;;;;;5074910;28;20259;-69
2021/11/15 14:24:04;;;;;;;;;;;13.40;55.50;;;;;;5075054;28;19954;-70